createdAt,value
2019-06-26T00:00:00.109Z,24.81
2019-06-26T00:05:00.102Z,24.75
2019-06-26T00:10:00.124Z,24.69
2019-06-26T00:15:00.119Z,24.69
2019-06-26T00:20:00.109Z,24.63
2019-06-26T00:25:00.068Z,24.5
2019-06-26T00:30:00.137Z,24.44
2019-06-26T00:35:00.136Z,24.31
2019-06-26T00:40:00.130Z,24.25
2019-06-26T00:45:00.130Z,24.25
2019-06-26T00:50:00.070Z,24.25
2019-06-26T00:55:00.113Z,24.19
2019-06-26T01:00:00.125Z,24.19
2019-06-26T01:05:00.156Z,24.13
2019-06-26T01:10:00.079Z,24
2019-06-26T01:15:00.135Z,23.94
2019-06-26T01:20:00.075Z,23.88
2019-06-26T01:25:00.125Z,23.81
2019-06-26T01:30:00.107Z,23.75
2019-06-26T01:35:00.101Z,23.63
2019-06-26T01:40:00.129Z,23.56
2019-06-26T01:45:00.109Z,23.44
2019-06-26T01:50:00.117Z,23.31
2019-06-26T01:55:00.136Z,23.25
2019-06-26T02:00:00.063Z,23.25
2019-06-26T02:05:00.124Z,23.19
2019-06-26T02:10:00.118Z,23.13
2019-06-26T02:15:00.139Z,23
2019-06-26T02:20:00.099Z,22.94
2019-06-26T02:25:00.136Z,22.88
2019-06-26T02:30:00.190Z,22.81
2019-06-26T02:35:00.108Z,22.69
2019-06-26T02:40:00.109Z,22.69
2019-06-26T02:45:00.123Z,22.56
2019-06-26T02:50:00.106Z,22.56
2019-06-26T02:55:00.132Z,22.5
2019-06-26T03:00:00.070Z,22.5
2019-06-26T03:05:00.115Z,22.5
2019-06-26T03:10:00.141Z,22.56
2019-06-26T03:15:08.618Z,22.63
2019-06-26T03:20:00.066Z,22.69
2019-06-26T03:25:00.121Z,22.69
2019-06-26T03:30:00.133Z,22.69
2019-06-26T03:35:00.067Z,22.69
2019-06-26T03:40:00.098Z,23.69
2019-06-26T03:45:00.078Z,24.5
2019-06-26T03:50:00.127Z,25.19
2019-06-26T03:55:00.127Z,26.19
2019-06-26T04:00:00.102Z,26.88
2019-06-26T04:05:00.293Z,27.94
2019-06-26T04:10:00.059Z,28.56
2019-06-26T04:15:00.064Z,29.13
2019-06-26T04:20:00.140Z,29.31
2019-06-26T04:25:00.139Z,29.31
2019-06-26T04:30:00.123Z,29.25
2019-06-26T04:35:00.077Z,29.75
2019-06-26T04:40:00.130Z,30.13
2019-06-26T04:45:00.099Z,31.06
2019-06-26T04:50:00.163Z,31
2019-06-26T04:55:00.120Z,31.31
2019-06-26T05:00:00.062Z,31.5
2019-06-26T05:05:00.147Z,31.94
2019-06-26T05:10:00.135Z,32.31
2019-06-26T05:15:00.106Z,32.94
2019-06-26T05:20:00.211Z,33.19
2019-06-26T05:25:00.072Z,33.19
2019-06-26T05:30:00.288Z,33.5
2019-06-26T05:35:00.110Z,33.69
2019-06-26T05:40:00.146Z,34.25
2019-06-26T05:45:00.114Z,34.56
2019-06-26T05:50:00.112Z,34.44
2019-06-26T05:55:00.123Z,34.94
2019-06-26T06:00:00.111Z,34.88
2019-06-26T06:05:00.112Z,35.06
2019-06-26T06:10:00.106Z,35.5
2019-06-26T06:15:00.128Z,35.88
2019-06-26T06:20:00.106Z,35.81
2019-06-26T06:25:00.079Z,35.94
2019-06-26T06:30:00.119Z,36.19
2019-06-26T06:35:00.099Z,36.81
2019-06-26T06:40:00.311Z,36.88
2019-06-26T06:45:00.107Z,36.63
2019-06-26T06:50:00.140Z,36.88
2019-06-26T06:55:00.110Z,36.88
2019-06-26T07:00:00.121Z,36.63
2019-06-26T07:05:00.064Z,37.44
2019-06-26T07:10:00.103Z,38.06
2019-06-26T07:15:00.114Z,37.88
2019-06-26T07:20:00.104Z,38.13
2019-06-26T07:25:00.124Z,38.81
2019-06-26T07:30:00.142Z,39.19
2019-06-26T07:35:00.137Z,39.63
2019-06-26T07:40:01.998Z,39.5
2019-06-26T07:45:00.128Z,39
2019-06-26T07:50:00.116Z,38.63
2019-06-26T07:55:00.066Z,39.25
2019-06-26T08:00:00.103Z,39.5
2019-06-26T08:05:00.290Z,38.38
2019-06-26T08:10:00.106Z,37.56
2019-06-26T08:15:00.107Z,37.13
2019-06-26T08:20:00.116Z,37.06
2019-06-26T08:25:00.113Z,37.06
2019-06-26T08:30:00.110Z,36.69
2019-06-26T08:35:00.166Z,36.19
2019-06-26T08:40:00.127Z,36.13
2019-06-26T08:45:00.118Z,36.19
2019-06-26T08:50:00.139Z,36.44
2019-06-26T08:55:00.119Z,36.56
2019-06-26T09:00:00.114Z,36.69
2019-06-26T09:05:00.104Z,37
2019-06-26T09:10:00.146Z,37
2019-06-26T09:15:00.091Z,37
2019-06-26T09:20:00.203Z,37.38
2019-06-26T09:25:00.138Z,38.13
2019-06-26T09:30:00.096Z,37.94
2019-06-26T09:35:00.093Z,37.69
2019-06-26T09:40:00.178Z,37.88
2019-06-26T09:45:00.131Z,37.75
2019-06-26T09:50:00.110Z,37.38
2019-06-26T09:55:00.128Z,37.56
2019-06-26T10:00:00.097Z,37.75
2019-06-26T10:05:00.087Z,37.5
2019-06-26T10:10:00.106Z,37.44
2019-06-26T10:15:00.118Z,37.81
2019-06-26T10:20:00.114Z,37.75
2019-06-26T10:25:00.098Z,37.69
2019-06-26T10:30:00.145Z,37.56
2019-06-26T10:35:00.120Z,37.25
2019-06-26T10:40:00.103Z,36.81
2019-06-26T10:45:00.157Z,37.06
2019-06-26T10:50:00.099Z,37.31
2019-06-26T10:55:00.191Z,37.63
2019-06-26T11:00:00.069Z,37.69
2019-06-26T11:05:00.305Z,38.13
2019-06-26T11:10:00.143Z,38.06
2019-06-26T11:15:00.188Z,38.38
2019-06-26T11:20:00.160Z,38.44
2019-06-26T11:25:00.141Z,37.81
2019-06-26T11:30:00.072Z,37.56
2019-06-26T11:35:00.109Z,37.38
2019-06-26T11:40:00.134Z,37.75
2019-06-26T11:45:00.118Z,38.06
2019-06-26T11:50:00.586Z,37.81
2019-06-26T11:55:02.850Z,37.56
2019-06-26T12:00:00.199Z,37.69
2019-06-26T12:05:00.126Z,37.5
2019-06-26T12:10:00.170Z,37.56
2019-06-26T12:15:00.133Z,37.5
2019-06-26T12:20:13.536Z,37.25
2019-06-26T12:25:00.107Z,37.13
2019-06-26T12:30:00.198Z,37.38
2019-06-26T12:35:00.206Z,37.13
2019-06-26T12:40:00.228Z,36.88
2019-06-26T12:45:00.132Z,36.69
2019-06-26T12:50:00.101Z,37
2019-06-26T12:55:00.158Z,37.25
2019-06-26T13:00:00.109Z,37.44
2019-06-26T13:05:00.133Z,37.63
2019-06-26T13:10:00.097Z,37.38
2019-06-26T13:15:00.099Z,37.31
2019-06-26T13:20:00.109Z,37.25
2019-06-26T13:25:00.067Z,37.19
2019-06-26T13:30:00.162Z,37.31
2019-06-26T13:35:00.121Z,37.69
2019-06-26T13:40:00.127Z,37.63
2019-06-26T13:45:00.183Z,37.38
2019-06-26T13:50:00.113Z,37.25
2019-06-26T13:55:00.098Z,37.19
2019-06-26T14:00:00.121Z,37
2019-06-26T14:05:00.125Z,37
2019-06-26T14:10:00.105Z,37.13
2019-06-26T14:15:00.109Z,37.13
2019-06-26T14:20:00.109Z,37.06
2019-06-26T14:25:00.094Z,36.88
2019-06-26T14:30:00.242Z,37
2019-06-26T14:35:00.100Z,37.19
2019-06-26T14:40:00.113Z,37.25
2019-06-26T14:45:00.127Z,37.31
2019-06-26T14:50:00.100Z,37.25
2019-06-26T14:55:00.120Z,37.13
2019-06-26T15:00:00.103Z,36.94
2019-06-26T15:05:00.123Z,36.5
2019-06-26T15:10:00.110Z,36.69
2019-06-26T15:15:00.103Z,36.94
2019-06-26T15:20:00.138Z,36.69
2019-06-26T15:25:00.102Z,36.44
2019-06-26T15:30:00.132Z,36.19
2019-06-26T15:35:00.230Z,36.38
2019-06-26T15:40:00.103Z,36.38
2019-06-26T15:45:00.113Z,36.69
2019-06-26T15:50:00.071Z,36.5
2019-06-26T15:55:00.110Z,36.19
2019-06-26T16:00:00.063Z,36.13
2019-06-26T16:05:00.112Z,35.94
2019-06-26T16:10:00.118Z,35.81
2019-06-26T16:15:00.099Z,35.69
2019-06-26T16:20:00.216Z,35.56
2019-06-26T16:25:00.065Z,35.13
2019-06-26T16:30:00.103Z,35
2019-06-26T16:35:00.157Z,34.81
2019-06-26T16:40:00.115Z,34.75
2019-06-26T16:45:00.109Z,34.69
2019-06-26T16:50:00.067Z,34.56
2019-06-26T16:55:00.101Z,34.44
2019-06-26T17:00:09.205Z,34.38
2019-06-26T17:05:00.111Z,34.19
2019-06-26T17:10:00.112Z,34.06
2019-06-26T17:15:03.930Z,33.94
2019-06-26T17:20:00.190Z,33.81
2019-06-26T17:25:00.108Z,33.69
2019-06-26T17:30:00.107Z,33.63
2019-06-26T17:35:00.104Z,33.38
2019-06-26T17:40:00.199Z,33.19
2019-06-26T17:45:00.104Z,33
2019-06-26T17:50:00.102Z,32.94
2019-06-26T17:55:00.100Z,32.88
2019-06-26T18:00:00.116Z,32.75
2019-06-26T18:05:00.119Z,32.56
2019-06-26T18:10:00.062Z,32.44
2019-06-26T18:15:00.104Z,32.19
2019-06-26T18:20:00.114Z,32.06
2019-06-26T18:25:00.102Z,31.88
2019-06-26T18:30:00.110Z,31.75
2019-06-26T18:35:00.113Z,31.56
2019-06-26T18:40:00.068Z,31.5
2019-06-26T18:45:00.131Z,31.38
2019-06-26T18:50:00.127Z,31.31
2019-06-26T18:55:00.147Z,31.13
2019-06-26T19:00:00.100Z,31.06
2019-06-26T19:05:00.110Z,30.94
2019-06-26T19:10:00.100Z,30.88
2019-06-26T19:15:00.103Z,30.75
2019-06-26T19:20:00.099Z,30.63
2019-06-26T19:25:00.118Z,30.44
2019-06-26T19:30:00.109Z,30.38
2019-06-26T19:35:07.823Z,30.19
2019-06-26T19:40:00.061Z,30.06
2019-06-26T19:45:00.098Z,29.88
2019-06-26T19:50:00.102Z,29.75
2019-06-26T19:55:00.074Z,29.56
2019-06-26T20:00:00.194Z,29.44
2019-06-26T20:05:00.119Z,29.31
2019-06-26T20:10:01.799Z,29.19
2019-06-26T20:15:00.118Z,29.06
2019-06-26T20:20:00.106Z,28.94
2019-06-26T20:25:00.205Z,28.75
2019-06-26T20:30:00.141Z,28.63
2019-06-26T20:35:00.065Z,28.44
2019-06-26T20:40:00.121Z,28.31
2019-06-26T20:45:00.181Z,28.19
2019-06-26T20:50:00.064Z,28.06
2019-06-26T20:55:02.306Z,27.94
2019-06-26T21:00:00.181Z,27.75
2019-06-26T21:05:00.099Z,27.56
2019-06-26T21:10:00.122Z,27.44
2019-06-26T21:15:00.250Z,27.25
2019-06-26T21:20:00.096Z,27.19
2019-06-26T21:25:13.626Z,27.06
2019-06-26T21:30:00.100Z,26.94
2019-06-26T21:35:00.125Z,26.81
2019-06-26T21:40:00.099Z,26.75
2019-06-26T21:45:00.119Z,26.69
2019-06-26T21:50:00.107Z,26.56
2019-06-26T21:55:00.114Z,26.44
2019-06-26T22:00:00.150Z,26.31
2019-06-26T22:05:00.158Z,26.13
2019-06-26T22:10:00.102Z,26.13
2019-06-26T22:15:00.183Z,26
2019-06-26T22:20:00.074Z,25.81
2019-06-26T22:25:00.115Z,25.69
2019-06-26T22:30:00.111Z,25.56
2019-06-26T22:35:00.113Z,25.38
2019-06-26T22:40:00.127Z,25.31
2019-06-26T22:45:00.072Z,25.19
2019-06-26T22:50:00.131Z,25.13
2019-06-26T22:55:00.166Z,25.06
2019-06-26T23:00:00.070Z,25
2019-06-26T23:05:00.146Z,24.88
2019-06-26T23:10:00.112Z,24.94
2019-06-26T23:15:00.102Z,24.75
2019-06-26T23:20:00.217Z,24.63
2019-06-26T23:25:00.112Z,24.5
2019-06-26T23:30:00.101Z,24.5
2019-06-26T23:35:00.065Z,24.31
2019-06-26T23:40:00.125Z,24.25
2019-06-26T23:45:00.129Z,24.13
2019-06-26T23:50:00.105Z,23.94
2019-06-26T23:55:00.110Z,23.88
